sensor_id;sensor_type;location;lat;lon;timestamp;pressure;altitude;pressure_sealevel;temperature;humidity
61618;BME280;47518;51.776;9.370;2023-01-05T00:01:24;99869.50;;;10.48;85.94
61618;BME280;47518;51.776;9.370;2023-01-05T00:03:49;99855.06;;;10.33;88.17
61618;BME280;47518;51.776;9.370;2023-01-05T00:06:15;99843.75;;;10.07;89.52
61618;BME280;47518;51.776;9.370;2023-01-05T00:08:43;99834.88;;;10.13;88.04
61618;BME280;47518;51.776;9.370;2023-01-05T00:11:11;99858.72;;;10.03;89.36
61618;BME280;47518;51.776;9.370;2023-01-05T00:13:57;99861.75;;;10.08;87.90
61618;BME280;47518;51.776;9.370;2023-01-05T00:16:42;99876.81;;;10.10;88.33
61618;BME280;47518;51.776;9.370;2023-01-05T00:19:28;99873.34;;;10.16;85.68
61618;BME280;47518;51.776;9.370;2023-01-05T00:22:15;99889.44;;;10.03;89.50
61618;BME280;47518;51.776;9.370;2023-01-05T00:25:01;99902.78;;;9.90;90.12
61618;BME280;47518;51.776;9.370;2023-01-05T00:27:28;99904.66;;;9.89;90.43
61618;BME280;47518;51.776;9.370;2023-01-05T00:29:54;99898.22;;;9.68;93.77
61618;BME280;47518;51.776;9.370;2023-01-05T00:32:19;99895.63;;;9.51;95.34
61618;BME280;47518;51.776;9.370;2023-01-05T00:34:44;99916.16;;;9.46;96.74
61618;BME280;47518;51.776;9.370;2023-01-05T00:37:10;99956.41;;;9.34;96.50
61618;BME280;47518;51.776;9.370;2023-01-05T00:39:35;99945.47;;;9.19;98.37
61618;BME280;47518;51.776;9.370;2023-01-05T00:42:00;99921.16;;;9.03;100.00
61618;BME280;47518;51.776;9.370;2023-01-05T00:44:26;99920.66;;;8.99;100.00
61618;BME280;47518;51.776;9.370;2023-01-05T00:46:51;99929.81;;;8.98;100.00
61618;BME280;47518;51.776;9.370;2023-01-05T00:49:16;99917.28;;;8.97;100.00
61618;BME280;47518;51.776;9.370;2023-01-05T00:51:42;99923.69;;;9.04;100.00
61618;BME280;47518;51.776;9.370;2023-01-05T00:54:07;99944.19;;;9.07;100.00
61618;BME280;47518;51.776;9.370;2023-01-05T00:56:32;99926.88;;;9.08;100.00
61618;BME280;47518;51.776;9.370;2023-01-05T00:58:57;99935.50;;;9.12;100.00
61618;BME280;47518;51.776;9.370;2023-01-05T01:01:23;99942.28;;;9.16;100.00
61618;BME280;47518;51.776;9.370;2023-01-05T01:03:48;99954.63;;;9.26;99.02
61618;BME280;47518;51.776;9.370;2023-01-05T01:06:14;99918.06;;;9.37;97.78
61618;BME280;47518;51.776;9.370;2023-01-05T01:08:39;99927.03;;;9.46;96.81
61618;BME280;47518;51.776;9.370;2023-01-05T01:11:07;99926.66;;;9.49;96.92
61618;BME280;47518;51.776;9.370;2023-01-05T01:13:33;99941.56;;;9.53;96.40
61618;BME280;47518;51.776;9.370;2023-01-05T01:16:04;99950.38;;;9.55;95.58
61618;BME280;47518;51.776;9.370;2023-01-05T01:18:30;99925.97;;;9.55;94.74
61618;BME280;47518;51.776;9.370;2023-01-05T01:20:55;99940.06;;;9.50;96.54
61618;BME280;47518;51.776;9.370;2023-01-05T01:23:20;99939.88;;;9.52;96.36
61618;BME280;47518;51.776;9.370;2023-01-05T01:25:45;99937.03;;;9.45;95.23
61618;BME280;47518;51.776;9.370;2023-01-05T01:28:11;99948.72;;;9.46;94.05
61618;BME280;47518;51.776;9.370;2023-01-05T01:30:37;99977.56;;;9.47;95.08
61618;BME280;47518;51.776;9.370;2023-01-05T01:33:03;99955.31;;;9.51;93.07
61618;BME280;47518;51.776;9.370;2023-01-05T01:35:28;99952.25;;;9.54;93.06
61618;BME280;47518;51.776;9.370;2023-01-05T01:37:53;99954.66;;;9.49;93.01
61618;BME280;47518;51.776;9.370;2023-01-05T01:40:18;99951.41;;;9.54;92.47
61618;BME280;47518;51.776;9.370;2023-01-05T01:42:44;99944.28;;;9.53;92.83
61618;BME280;47518;51.776;9.370;2023-01-05T01:45:19;99951.19;;;9.63;91.00
61618;BME280;47518;51.776;9.370;2023-01-05T01:50:35;99965.97;;;9.61;89.74
61618;BME280;47518;51.776;9.370;2023-01-05T01:53:05;99957.81;;;9.61;89.34
61618;BME280;47518;51.776;9.370;2023-01-05T01:55:33;99967.31;;;9.57;90.11
61618;BME280;47518;51.776;9.370;2023-01-05T01:58:00;99970.88;;;9.57;89.04
61618;BME280;47518;51.776;9.370;2023-01-05T02:00:27;100003.97;;;9.61;89.79
61618;BME280;47518;51.776;9.370;2023-01-05T02:02:54;99981.22;;;9.62;89.16
61618;BME280;47518;51.776;9.370;2023-01-05T02:05:27;99985.72;;;9.70;88.60
61618;BME280;47518;51.776;9.370;2023-01-05T02:07:53;99969.16;;;9.64;88.32
61618;BME280;47518;51.776;9.370;2023-01-05T02:10:30;99990.13;;;9.71;88.79
61618;BME280;47518;51.776;9.370;2023-01-05T02:39:15;99985.31;;;9.19;93.71
61618;BME280;47518;51.776;9.370;2023-01-05T02:41:47;99969.53;;;9.22;92.48
61618;BME280;47518;51.776;9.370;2023-01-05T02:44:17;99977.00;;;9.20;92.73
61618;BME280;47518;51.776;9.370;2023-01-05T02:46:44;99983.56;;;9.26;91.73
61618;BME280;47518;51.776;9.370;2023-01-05T02:49:09;99985.75;;;9.39;89.77
61618;BME280;47518;51.776;9.370;2023-01-05T02:51:40;99967.06;;;9.44;89.26
61618;BME280;47518;51.776;9.370;2023-01-05T02:54:12;99984.72;;;9.40;88.26
61618;BME280;47518;51.776;9.370;2023-01-05T02:56:43;99976.38;;;9.49;88.52
61618;BME280;47518;51.776;9.370;2023-01-05T02:59:26;99979.19;;;9.56;87.25
61618;BME280;47518;51.776;9.370;2023-01-05T03:01:58;99980.41;;;9.53;88.77
61618;BME280;47518;51.776;9.370;2023-01-05T03:04:37;99970.06;;;9.49;88.42
61618;BME280;47518;51.776;9.370;2023-01-05T03:07:08;99985.94;;;9.60;86.61
61618;BME280;47518;51.776;9.370;2023-01-05T03:09:37;99983.09;;;9.61;86.04
61618;BME280;47518;51.776;9.370;2023-01-05T03:12:12;99999.91;;;9.49;88.59
61618;BME280;47518;51.776;9.370;2023-01-05T03:15:06;99973.94;;;9.23;90.66
61618;BME280;47518;51.776;9.370;2023-01-05T03:17:40;99978.41;;;9.08;91.76
61618;BME280;47518;51.776;9.370;2023-01-05T03:20:10;99987.59;;;8.99;92.33
61618;BME280;47518;51.776;9.370;2023-01-05T03:22:38;99976.91;;;9.05;91.91
61618;BME280;47518;51.776;9.370;2023-01-05T03:25:25;99981.19;;;8.92;93.77
61618;BME280;47518;51.776;9.370;2023-01-05T03:28:16;99971.31;;;8.99;91.47
61618;BME280;47518;51.776;9.370;2023-01-05T03:33:56;99990.09;;;9.09;90.61
61618;BME280;47518;51.776;9.370;2023-01-05T03:36:51;99991.09;;;9.16;89.20
61618;BME280;47518;51.776;9.370;2023-01-05T03:39:18;100006.19;;;9.18;89.90
61618;BME280;47518;51.776;9.370;2023-01-05T03:41:45;100009.84;;;9.25;88.29
61618;BME280;47518;51.776;9.370;2023-01-05T03:44:11;99995.44;;;9.25;89.05
61618;BME280;47518;51.776;9.370;2023-01-05T03:46:37;100020.38;;;9.28;88.59
61618;BME280;47518;51.776;9.370;2023-01-05T03:49:03;100013.78;;;9.23;90.65
61618;BME280;47518;51.776;9.370;2023-01-05T03:51:29;100008.03;;;9.18;90.82
61618;BME280;47518;51.776;9.370;2023-01-05T03:53:54;100013.66;;;9.08;91.65
61618;BME280;47518;51.776;9.370;2023-01-05T03:56:19;100021.97;;;9.15;90.67
61618;BME280;47518;51.776;9.370;2023-01-05T03:58:44;100018.06;;;9.09;90.37
61618;BME280;47518;51.776;9.370;2023-01-05T04:01:10;100014.34;;;9.10;90.74
61618;BME280;47518;51.776;9.370;2023-01-05T04:03:35;100020.47;;;9.04;92.04
61618;BME280;47518;51.776;9.370;2023-01-05T04:06:01;100019.44;;;9.05;90.79
61618;BME280;47518;51.776;9.370;2023-01-05T04:08:26;100026.56;;;8.98;91.03
61618;BME280;47518;51.776;9.370;2023-01-05T04:10:52;100037.41;;;8.98;91.48
61618;BME280;47518;51.776;9.370;2023-01-05T04:13:18;100025.03;;;9.03;90.44
61618;BME280;47518;51.776;9.370;2023-01-05T04:15:43;100031.16;;;8.97;91.22
61618;BME280;47518;51.776;9.370;2023-01-05T04:18:08;100030.31;;;8.97;90.84
61618;BME280;47518;51.776;9.370;2023-01-05T04:20:34;100026.91;;;8.95;90.86
61618;BME280;47518;51.776;9.370;2023-01-05T04:22:59;100033.19;;;8.95;91.52
61618;BME280;47518;51.776;9.370;2023-01-05T04:25:24;100016.06;;;8.95;89.28
61618;BME280;47518;51.776;9.370;2023-01-05T04:27:50;100031.31;;;8.96;91.24
61618;BME280;47518;51.776;9.370;2023-01-05T04:30:15;100041.50;;;8.94;92.48
61618;BME280;47518;51.776;9.370;2023-01-05T04:32:41;100035.41;;;8.92;91.05
61618;BME280;47518;51.776;9.370;2023-01-05T04:35:07;100045.06;;;8.86;92.23
61618;BME280;47518;51.776;9.370;2023-01-05T04:37:32;100045.22;;;8.93;91.72
61618;BME280;47518;51.776;9.370;2023-01-05T04:39:57;100038.97;;;8.92;91.52
61618;BME280;47518;51.776;9.370;2023-01-05T04:42:23;100047.94;;;8.93;91.56
61618;BME280;47518;51.776;9.370;2023-01-05T04:44:49;100052.34;;;8.94;91.06
61618;BME280;47518;51.776;9.370;2023-01-05T04:47:14;100055.72;;;8.96;92.19
61618;BME280;47518;51.776;9.370;2023-01-05T04:49:39;100054.22;;;8.93;92.68
61618;BME280;47518;51.776;9.370;2023-01-05T04:52:04;100051.31;;;8.87;92.94
61618;BME280;47518;51.776;9.370;2023-01-05T04:54:30;100051.16;;;8.88;92.38
61618;BME280;47518;51.776;9.370;2023-01-05T04:56:55;100045.72;;;8.88;92.46
61618;BME280;47518;51.776;9.370;2023-01-05T04:59:21;100051.81;;;8.90;92.47
61618;BME280;47518;51.776;9.370;2023-01-05T05:01:46;100056.41;;;8.90;93.12
61618;BME280;47518;51.776;9.370;2023-01-05T05:04:11;100055.06;;;8.86;94.50
61618;BME280;47518;51.776;9.370;2023-01-05T05:06:36;100050.97;;;8.90;93.94
61618;BME280;47518;51.776;9.370;2023-01-05T05:09:02;100070.66;;;8.92;93.39
61618;BME280;47518;51.776;9.370;2023-01-05T05:11:27;100066.56;;;8.96;93.37
61618;BME280;47518;51.776;9.370;2023-01-05T05:13:52;100075.56;;;8.88;94.67
61618;BME280;47518;51.776;9.370;2023-01-05T05:29:15;100058.81;;;8.52;95.67
61618;BME280;47518;51.776;9.370;2023-01-05T05:31:40;100076.94;;;8.60;95.50
61618;BME280;47518;51.776;9.370;2023-01-05T05:34:05;100077.94;;;8.67;94.35
61618;BME280;47518;51.776;9.370;2023-01-05T05:36:31;100083.53;;;8.73;94.25
61618;BME280;47518;51.776;9.370;2023-01-05T05:38:56;100088.28;;;8.71;94.58
61618;BME280;47518;51.776;9.370;2023-01-05T05:41:23;100093.19;;;8.84;93.23
61618;BME280;47518;51.776;9.370;2023-01-05T05:43:48;100082.84;;;8.88;93.17
61618;BME280;47518;51.776;9.370;2023-01-05T05:46:14;100093.81;;;9.02;93.25
61618;BME280;47518;51.776;9.370;2023-01-05T05:48:39;100089.94;;;9.05;92.72
61618;BME280;47518;51.776;9.370;2023-01-05T05:51:04;100094.00;;;9.01;91.81
61618;BME280;47518;51.776;9.370;2023-01-05T05:53:30;100104.53;;;9.04;93.67
61618;BME280;47518;51.776;9.370;2023-01-05T05:55:55;100090.44;;;9.09;93.74
61618;BME280;47518;51.776;9.370;2023-01-05T05:58:20;100107.59;;;8.93;94.12
61618;BME280;47518;51.776;9.370;2023-01-05T06:00:46;100094.56;;;8.80;95.20
61618;BME280;47518;51.776;9.370;2023-01-05T06:03:11;100106.75;;;8.92;93.66
61618;BME280;47518;51.776;9.370;2023-01-05T06:05:37;100094.34;;;8.90;93.65
61618;BME280;47518;51.776;9.370;2023-01-05T06:08:02;100101.81;;;8.88;94.24
61618;BME280;47518;51.776;9.370;2023-01-05T06:10:28;100108.94;;;8.89;93.44
61618;BME280;47518;51.776;9.370;2023-01-05T06:12:54;100111.81;;;8.87;93.39
61618;BME280;47518;51.776;9.370;2023-01-05T06:15:20;100104.88;;;8.93;93.37
61618;BME280;47518;51.776;9.370;2023-01-05T06:17:46;100111.81;;;8.95;93.04
61618;BME280;47518;51.776;9.370;2023-01-05T06:20:13;100125.72;;;8.92;93.55
61618;BME280;47518;51.776;9.370;2023-01-05T06:22:39;100124.69;;;8.85;94.28
61618;BME280;47518;51.776;9.370;2023-01-05T06:25:04;100125.03;;;8.90;93.61
61618;BME280;47518;51.776;9.370;2023-01-05T06:27:30;100133.50;;;9.03;91.86
61618;BME280;47518;51.776;9.370;2023-01-05T06:29:55;100136.53;;;9.17;92.64
61618;BME280;47518;51.776;9.370;2023-01-05T06:32:20;100136.72;;;9.15;91.04
61618;BME280;47518;51.776;9.370;2023-01-05T06:34:46;100137.03;;;9.12;91.28
61618;BME280;47518;51.776;9.370;2023-01-05T06:37:11;100130.28;;;9.16;90.89
61618;BME280;47518;51.776;9.370;2023-01-05T06:39:37;100133.97;;;9.23;90.10
61618;BME280;47518;51.776;9.370;2023-01-05T06:42:02;100132.44;;;9.21;89.65
61618;BME280;47518;51.776;9.370;2023-01-05T06:44:27;100152.47;;;9.20;90.03
61618;BME280;47518;51.776;9.370;2023-01-05T06:46:53;100160.91;;;9.25;87.65
61618;BME280;47518;51.776;9.370;2023-01-05T06:49:18;100140.41;;;9.22;88.52
61618;BME280;47518;51.776;9.370;2023-01-05T06:51:43;100145.16;;;9.20;89.49
61618;BME280;47518;51.776;9.370;2023-01-05T06:54:08;100145.69;;;9.16;89.50
61618;BME280;47518;51.776;9.370;2023-01-05T06:56:35;100160.41;;;9.13;89.36
61618;BME280;47518;51.776;9.370;2023-01-05T06:59:00;100161.78;;;9.09;90.52
61618;BME280;47518;51.776;9.370;2023-01-05T07:01:25;100160.59;;;9.12;90.33
61618;BME280;47518;51.776;9.370;2023-01-05T07:03:51;100162.47;;;9.19;89.66
61618;BME280;47518;51.776;9.370;2023-01-05T07:06:16;100177.38;;;9.23;89.69
61618;BME280;47518;51.776;9.370;2023-01-05T07:08:41;100174.16;;;9.12;91.13
61618;BME280;47518;51.776;9.370;2023-01-05T07:11:07;100187.22;;;9.08;91.27
61618;BME280;47518;51.776;9.370;2023-01-05T07:13:32;100186.38;;;8.99;92.58
61618;BME280;47518;51.776;9.370;2023-01-05T07:15:57;100190.28;;;8.97;93.29
61618;BME280;47518;51.776;9.370;2023-01-05T07:18:23;100182.31;;;9.03;91.92
61618;BME280;47518;51.776;9.370;2023-01-05T07:20:48;100191.63;;;9.09;90.51
61618;BME280;47518;51.776;9.370;2023-01-05T07:23:13;100187.88;;;9.02;91.81
61618;BME280;47518;51.776;9.370;2023-01-05T07:25:39;100192.81;;;9.06;91.45
61618;BME280;47518;51.776;9.370;2023-01-05T07:28:04;100195.69;;;9.05;91.80
61618;BME280;47518;51.776;9.370;2023-01-05T07:30:29;100205.69;;;9.13;90.88
61618;BME280;47518;51.776;9.370;2023-01-05T07:32:58;100206.53;;;9.21;91.33
61618;BME280;47518;51.776;9.370;2023-01-05T07:35:23;100208.75;;;9.18;91.04
61618;BME280;47518;51.776;9.370;2023-01-05T07:37:49;100215.69;;;9.20;89.90
61618;BME280;47518;51.776;9.370;2023-01-05T07:40:14;100215.34;;;9.23;89.55
61618;BME280;47518;51.776;9.370;2023-01-05T07:42:39;100218.09;;;9.15;90.37
61618;BME280;47518;51.776;9.370;2023-01-05T07:45:05;100220.09;;;9.21;90.60
61618;BME280;47518;51.776;9.370;2023-01-05T07:47:31;100210.78;;;9.32;89.61
61618;BME280;47518;51.776;9.370;2023-01-05T07:49:56;100218.06;;;9.23;90.16
61618;BME280;47518;51.776;9.370;2023-01-05T07:52:21;100224.69;;;9.21;89.93
61618;BME280;47518;51.776;9.370;2023-01-05T07:54:47;100226.03;;;9.25;89.78
61618;BME280;47518;51.776;9.370;2023-01-05T07:57:12;100234.31;;;9.23;90.38
61618;BME280;47518;51.776;9.370;2023-01-05T07:59:37;100235.69;;;9.19;91.13
61618;BME280;47518;51.776;9.370;2023-01-05T08:02:03;100238.91;;;9.23;90.29
61618;BME280;47518;51.776;9.370;2023-01-05T08:04:28;100233.31;;;9.24;91.06
61618;BME280;47518;51.776;9.370;2023-01-05T08:06:54;100247.41;;;9.28;89.71
61618;BME280;47518;51.776;9.370;2023-01-05T08:09:20;100252.47;;;9.31;89.61
61618;BME280;47518;51.776;9.370;2023-01-05T08:12:05;100245.38;;;9.30;91.39
61618;BME280;47518;51.776;9.370;2023-01-05T08:14:31;100253.00;;;9.26;90.57
61618;BME280;47518;51.776;9.370;2023-01-05T08:16:56;100252.31;;;9.32;90.49
61618;BME280;47518;51.776;9.370;2023-01-05T08:19:21;100247.56;;;9.26;90.00
61618;BME280;47518;51.776;9.370;2023-01-05T08:21:47;100256.91;;;9.40;89.07
61618;BME280;47518;51.776;9.370;2023-01-05T08:24:13;100266.06;;;9.39;89.63
61618;BME280;47518;51.776;9.370;2023-01-05T08:26:38;100271.63;;;9.38;90.50
61618;BME280;47518;51.776;9.370;2023-01-05T08:29:03;100279.25;;;9.26;92.52
61618;BME280;47518;51.776;9.370;2023-01-05T08:31:30;100290.13;;;9.18;93.73
61618;BME280;47518;51.776;9.370;2023-01-05T08:34:01;100290.28;;;9.16;93.02
61618;BME280;47518;51.776;9.370;2023-01-05T08:36:27;100282.81;;;9.10;92.95
61618;BME280;47518;51.776;9.370;2023-01-05T08:38:55;100287.22;;;9.11;92.21
61618;BME280;47518;51.776;9.370;2023-01-05T08:41:24;100285.34;;;9.12;90.95
61618;BME280;47518;51.776;9.370;2023-01-05T08:43:52;100300.44;;;9.22;90.90
61618;BME280;47518;51.776;9.370;2023-01-05T08:46:19;100314.34;;;9.19;90.08
61618;BME280;47518;51.776;9.370;2023-01-05T08:48:49;100306.56;;;9.24;89.65
61618;BME280;47518;51.776;9.370;2023-01-05T08:51:15;100305.22;;;9.28;90.04
61618;BME280;47518;51.776;9.370;2023-01-05T08:53:40;100320.47;;;9.21;89.62
61618;BME280;47518;51.776;9.370;2023-01-05T08:56:06;100316.91;;;9.29;89.24
61618;BME280;47518;51.776;9.370;2023-01-05T08:58:31;100319.97;;;9.34;88.81
61618;BME280;47518;51.776;9.370;2023-01-05T09:00:57;100330.31;;;9.47;88.63
61618;BME280;47518;51.776;9.370;2023-01-05T09:03:22;100323.53;;;9.43;89.62
61618;BME280;47518;51.776;9.370;2023-01-05T09:05:51;100319.63;;;9.37;89.47
61618;BME280;47518;51.776;9.370;2023-01-05T09:08:17;100335.38;;;9.33;89.19
61618;BME280;47518;51.776;9.370;2023-01-05T09:10:42;100333.72;;;9.41;88.14
61618;BME280;47518;51.776;9.370;2023-01-05T09:13:07;100346.25;;;9.42;89.57
61618;BME280;47518;51.776;9.370;2023-01-05T09:15:34;100342.84;;;9.48;89.48
61618;BME280;47518;51.776;9.370;2023-01-05T09:17:59;100352.53;;;9.42;88.83
61618;BME280;47518;51.776;9.370;2023-01-05T09:20:24;100355.06;;;9.60;87.19
61618;BME280;47518;51.776;9.370;2023-01-05T09:22:50;100365.59;;;9.55;88.87
61618;BME280;47518;51.776;9.370;2023-01-05T09:25:15;100363.53;;;9.49;89.83
61618;BME280;47518;51.776;9.370;2023-01-05T09:27:40;100372.56;;;9.49;89.38
61618;BME280;47518;51.776;9.370;2023-01-05T09:30:07;100373.22;;;9.43;91.78
61618;BME280;47518;51.776;9.370;2023-01-05T09:32:35;100378.94;;;9.24;92.36
61618;BME280;47518;51.776;9.370;2023-01-05T09:35:01;100388.81;;;9.33;92.47
61618;BME280;47518;51.776;9.370;2023-01-05T09:37:26;100390.88;;;9.39;93.23
61618;BME280;47518;51.776;9.370;2023-01-05T09:39:51;100396.28;;;9.31;93.34
61618;BME280;47518;51.776;9.370;2023-01-05T09:42:19;100399.63;;;9.17;95.38
61618;BME280;47518;51.776;9.370;2023-01-05T09:44:50;100405.03;;;9.09;96.55
61618;BME280;47518;51.776;9.370;2023-01-05T09:50:10;100403.38;;;9.32;94.29
61618;BME280;47518;51.776;9.370;2023-01-05T09:52:41;100413.41;;;9.31;93.55
61618;BME280;47518;51.776;9.370;2023-01-05T09:55:14;100409.16;;;9.29;92.14
61618;BME280;47518;51.776;9.370;2023-01-05T09:57:42;100410.84;;;9.30;92.87
61618;BME280;47518;51.776;9.370;2023-01-05T10:00:14;100412.69;;;9.21;92.56
61618;BME280;47518;51.776;9.370;2023-01-05T10:02:50;100411.69;;;9.30;92.41
61618;BME280;47518;51.776;9.370;2023-01-05T10:05:18;100418.13;;;9.38;91.69
61618;BME280;47518;51.776;9.370;2023-01-05T10:07:51;100413.72;;;9.36;90.71
61618;BME280;47518;51.776;9.370;2023-01-05T10:13:20;100418.16;;;9.46;90.76
61618;BME280;47518;51.776;9.370;2023-01-05T10:15:52;100415.63;;;9.44;92.39
61618;BME280;47518;51.776;9.370;2023-01-05T10:18:21;100417.34;;;9.61;90.04
61618;BME280;47518;51.776;9.370;2023-01-05T10:34:16;100428.03;;;9.63;89.82
61618;BME280;47518;51.776;9.370;2023-01-05T10:50:24;100439.25;;;9.92;87.90
61618;BME280;47518;51.776;9.370;2023-01-05T10:52:52;100440.25;;;9.83;89.68
61618;BME280;47518;51.776;9.370;2023-01-05T10:55:19;100431.97;;;9.77;88.85
61618;BME280;47518;51.776;9.370;2023-01-05T10:57:45;100440.09;;;9.93;89.28
61618;BME280;47518;51.776;9.370;2023-01-05T11:00:15;100449.09;;;9.93;88.23
61618;BME280;47518;51.776;9.370;2023-01-05T11:02:48;100442.81;;;9.93;88.13
61618;BME280;47518;51.776;9.370;2023-01-05T11:05:22;100444.69;;;9.92;88.15
61618;BME280;47518;51.776;9.370;2023-01-05T11:10:35;100442.66;;;9.86;89.08
61618;BME280;47518;51.776;9.370;2023-01-05T11:13:15;100463.19;;;9.89;87.20
61618;BME280;47518;51.776;9.370;2023-01-05T11:15:49;100454.00;;;9.82;87.32
61618;BME280;47518;51.776;9.370;2023-01-05T11:34:48;100464.22;;;10.20;84.76
61618;BME280;47518;51.776;9.370;2023-01-05T11:37:29;100459.63;;;10.21;85.80
61618;BME280;47518;51.776;9.370;2023-01-05T11:39:57;100470.31;;;10.14;86.01
61618;BME280;47518;51.776;9.370;2023-01-05T11:45:22;100474.91;;;10.06;87.99
61618;BME280;47518;51.776;9.370;2023-01-05T11:47:52;100483.41;;;9.86;90.31
61618;BME280;47518;51.776;9.370;2023-01-05T11:50:22;100478.28;;;9.75;91.03
61618;BME280;47518;51.776;9.370;2023-01-05T11:52:52;100478.63;;;9.80;92.17
61618;BME280;47518;51.776;9.370;2023-01-05T12:01:28;100494.47;;;9.43;95.20
61618;BME280;47518;51.776;9.370;2023-01-05T12:04:04;100499.53;;;9.38;95.03
61618;BME280;47518;51.776;9.370;2023-01-05T12:09:26;100486.78;;;9.22;96.78
61618;BME280;47518;51.776;9.370;2023-01-05T12:26:57;100494.44;;;9.34;97.66
61618;BME280;47518;51.776;9.370;2023-01-05T12:35:49;100500.94;;;9.42;96.33
61618;BME280;47518;51.776;9.370;2023-01-05T12:41:15;100500.56;;;9.36;97.39
61618;BME280;47518;51.776;9.370;2023-01-05T12:49:18;100500.50;;;9.62;95.85
61618;BME280;47518;51.776;9.370;2023-01-05T12:51:51;100498.63;;;9.63;94.91
61618;BME280;47518;51.776;9.370;2023-01-05T12:57:17;100513.34;;;9.52;96.54
61618;BME280;47518;51.776;9.370;2023-01-05T13:05:21;100517.28;;;9.66;94.17
61618;BME280;47518;51.776;9.370;2023-01-05T13:13:38;100526.06;;;9.60;94.30
61618;BME280;47518;51.776;9.370;2023-01-05T13:16:22;100528.47;;;9.71;94.35
61618;BME280;47518;51.776;9.370;2023-01-05T13:18:55;100521.00;;;9.65;94.55
61618;BME280;47518;51.776;9.370;2023-01-05T13:21:22;100534.72;;;9.55;94.17
61618;BME280;47518;51.776;9.370;2023-01-05T13:26:29;100541.13;;;9.38;95.70
61618;BME280;47518;51.776;9.370;2023-01-05T13:28:55;100534.84;;;9.46;94.62
61618;BME280;47518;51.776;9.370;2023-01-05T13:34:20;100540.00;;;9.23;96.21
61618;BME280;47518;51.776;9.370;2023-01-05T13:43:10;100549.94;;;9.48;93.99
61618;BME280;47518;51.776;9.370;2023-01-05T13:51:40;100565.09;;;9.51;95.03
61618;BME280;47518;51.776;9.370;2023-01-05T13:54:45;100566.28;;;9.22;96.56
61618;BME280;47518;51.776;9.370;2023-01-05T13:57:35;100574.75;;;9.53;95.84
61618;BME280;47518;51.776;9.370;2023-01-05T14:00:05;100580.56;;;9.67;95.86
61618;BME280;47518;51.776;9.370;2023-01-05T14:02:57;100576.84;;;9.68;95.71
61618;BME280;47518;51.776;9.370;2023-01-05T14:05:32;100581.47;;;9.83;94.37
61618;BME280;47518;51.776;9.370;2023-01-05T14:08:02;100580.47;;;9.84;93.94
61618;BME280;47518;51.776;9.370;2023-01-05T14:10:30;100589.84;;;9.98;93.40
61618;BME280;47518;51.776;9.370;2023-01-05T14:12:56;100585.25;;;9.99;94.45
61618;BME280;47518;51.776;9.370;2023-01-05T14:18:05;100595.75;;;9.85;94.88
61618;BME280;47518;51.776;9.370;2023-01-05T14:20:48;100592.81;;;9.79;94.81
61618;BME280;47518;51.776;9.370;2023-01-05T14:26:12;100590.81;;;9.47;96.05
61618;BME280;47518;51.776;9.370;2023-01-05T14:28:41;100603.25;;;9.57;95.25
61618;BME280;47518;51.776;9.370;2023-01-05T14:36:50;100606.66;;;9.59;95.05
61618;BME280;47518;51.776;9.370;2023-01-05T14:39:27;100612.50;;;9.81;95.08
61618;BME280;47518;51.776;9.370;2023-01-05T14:44:46;100622.06;;;9.93;94.82
61618;BME280;47518;51.776;9.370;2023-01-05T14:47:14;100621.91;;;10.03;94.73
61618;BME280;47518;51.776;9.370;2023-01-05T14:49:50;100619.19;;;10.03;93.43
61618;BME280;47518;51.776;9.370;2023-01-05T14:52:18;100635.34;;;9.96;94.35
61618;BME280;47518;51.776;9.370;2023-01-05T14:57:46;100635.00;;;9.99;94.71
61618;BME280;47518;51.776;9.370;2023-01-05T15:00:16;100637.34;;;9.94;94.58
61618;BME280;47518;51.776;9.370;2023-01-05T15:02:53;100635.34;;;9.96;94.50
61618;BME280;47518;51.776;9.370;2023-01-05T15:05:19;100641.69;;;9.79;94.76
61618;BME280;47518;51.776;9.370;2023-01-05T15:13:46;100639.66;;;9.73;93.89
61618;BME280;47518;51.776;9.370;2023-01-05T15:16:42;100647.81;;;9.81;93.55
61618;BME280;47518;51.776;9.370;2023-01-05T15:30:46;100659.19;;;9.76;93.05
61618;BME280;47518;51.776;9.370;2023-01-05T15:33:28;100653.97;;;9.91;93.08
61618;BME280;47518;51.776;9.370;2023-01-05T15:36:00;100651.75;;;9.86;92.37
61618;BME280;47518;51.776;9.370;2023-01-05T15:38:28;100651.94;;;9.93;92.38
61618;BME280;47518;51.776;9.370;2023-01-05T15:41:00;100653.97;;;9.91;93.21
61618;BME280;47518;51.776;9.370;2023-01-05T15:43:30;100654.75;;;9.75;92.75
61618;BME280;47518;51.776;9.370;2023-01-05T15:45:56;100661.19;;;9.40;93.68
61618;BME280;47518;51.776;9.370;2023-01-05T15:48:28;100654.31;;;9.54;93.69
61618;BME280;47518;51.776;9.370;2023-01-05T15:50:56;100661.94;;;9.50;93.75
61618;BME280;47518;51.776;9.370;2023-01-05T15:53:28;100667.06;;;9.27;92.52
61618;BME280;47518;51.776;9.370;2023-01-05T15:55:55;100652.88;;;9.42;93.39
61618;BME280;47518;51.776;9.370;2023-01-05T15:58:22;100661.38;;;9.47;93.24
61618;BME280;47518;51.776;9.370;2023-01-05T16:01:09;100665.16;;;9.54;92.71
61618;BME280;47518;51.776;9.370;2023-01-05T16:03:37;100674.50;;;9.51;93.29
61618;BME280;47518;51.776;9.370;2023-01-05T16:06:06;100673.31;;;9.54;92.83
61618;BME280;47518;51.776;9.370;2023-01-05T16:08:38;100673.50;;;9.60;91.97
61618;BME280;47518;51.776;9.370;2023-01-05T16:11:06;100671.84;;;9.68;92.73
61618;BME280;47518;51.776;9.370;2023-01-05T16:13:43;100679.34;;;9.40;92.66
61618;BME280;47518;51.776;9.370;2023-01-05T16:16:16;100677.31;;;9.42;92.42
61618;BME280;47518;51.776;9.370;2023-01-05T16:18:48;100676.81;;;9.46;92.71
61618;BME280;47518;51.776;9.370;2023-01-05T16:21:26;100671.63;;;9.53;91.94
61618;BME280;47518;51.776;9.370;2023-01-05T16:23:59;100671.38;;;9.46;92.86
61618;BME280;47518;51.776;9.370;2023-01-05T16:26:25;100676.81;;;9.46;93.35
61618;BME280;47518;51.776;9.370;2023-01-05T16:28:50;100682.34;;;9.36;92.31
61618;BME280;47518;51.776;9.370;2023-01-05T16:31:33;100679.88;;;9.17;90.64
61618;BME280;47518;51.776;9.370;2023-01-05T16:34:04;100682.25;;;9.20;91.49
61618;BME280;47518;51.776;9.370;2023-01-05T16:36:30;100691.72;;;9.16;91.83